createdAt,value
2022-08-22T00:00:36.073Z,604.2
2022-08-22T00:01:43.218Z,604.9
2022-08-22T00:03:50.434Z,604.4
2022-08-22T00:04:52.898Z,604.5
2022-08-22T00:05:55.395Z,604.7
2022-08-22T00:06:57.885Z,604.6
2022-08-22T00:08:01.219Z,604.4
2022-08-22T00:09:03.413Z,604.6
2022-08-22T00:10:05.887Z,604.3
2022-08-22T00:11:08.362Z,604.2
2022-08-22T00:12:10.559Z,604.2
2022-08-22T00:13:13.036Z,604.1
2022-08-22T00:14:15.512Z,604.3
2022-08-22T00:16:22.985Z,604.3
2022-08-22T00:17:25.470Z,604.4
2022-08-22T00:18:27.409Z,604.4
2022-08-22T00:19:29.874Z,604.3
2022-08-22T00:20:32.344Z,604
2022-08-22T00:22:40.536Z,604.2
2022-08-22T00:23:42.723Z,603.9
2022-08-22T00:24:44.643Z,603.9
2022-08-22T00:25:46.817Z,603.9
2022-08-22T00:26:49.303Z,604.2
2022-08-22T00:27:51.265Z,604
2022-08-22T00:28:53.502Z,604.1
2022-08-22T00:29:55.988Z,604.3
2022-08-22T00:30:58.188Z,604.5
2022-08-22T00:32:00.379Z,604.1
2022-08-22T00:33:02.571Z,604.5
2022-08-22T00:34:04.501Z,604.5
2022-08-22T00:35:06.975Z,604.4
2022-08-22T00:36:09.448Z,604.7
2022-08-22T00:37:11.921Z,604.8
2022-08-22T00:38:14.136Z,604.5
2022-08-22T00:39:16.344Z,604.5
2022-08-22T00:40:18.862Z,604.1
2022-08-22T00:41:21.083Z,604.1
2022-08-22T00:43:28.563Z,604.5
2022-08-22T00:44:31.035Z,604.2
2022-08-22T00:45:33.514Z,604.7
2022-08-22T00:46:35.984Z,604.6
2022-08-22T00:47:38.459Z,604.7
2022-08-22T00:48:41.379Z,604.8
2022-08-22T00:49:43.901Z,604.7
2022-08-22T00:50:45.820Z,604.8
2022-08-22T00:51:48.305Z,604.7
2022-08-22T00:53:57.250Z,604.9
2022-08-22T00:54:59.717Z,604.7
2022-08-22T00:56:02.190Z,605
2022-08-22T00:57:04.388Z,605
2022-08-22T00:58:06.294Z,604.9
2022-08-22T01:00:13.218Z,604.8
2022-08-22T01:01:15.812Z,605.1
2022-08-22T01:02:18.291Z,605.1
2022-08-22T01:03:20.749Z,605.2
2022-08-22T01:04:22.956Z,605.4
2022-08-22T01:05:25.161Z,605.1
2022-08-22T01:06:27.355Z,605.4
2022-08-22T01:08:34.528Z,604.9
2022-08-22T01:09:37.000Z,605
2022-08-22T01:10:39.484Z,605
2022-08-22T01:11:41.104Z,604.8
2022-08-22T01:12:43.571Z,604.8
2022-08-22T01:13:46.058Z,605.1
2022-08-22T01:14:48.264Z,604.8
2022-08-22T01:15:50.728Z,604.6
2022-08-22T01:16:52.934Z,605
2022-08-22T01:17:56.745Z,605.1
2022-08-22T01:18:58.934Z,605
2022-08-22T01:20:01.424Z,605.1
2022-08-22T01:21:03.635Z,605
2022-08-22T01:22:06.129Z,604.9
2022-08-22T01:23:08.339Z,605
2022-08-22T01:24:11.054Z,605
2022-08-22T01:25:14.808Z,605
2022-08-22T01:27:24.371Z,605
2022-08-22T01:28:28.226Z,604.8
2022-08-22T01:29:32.404Z,605.4
2022-08-22T01:31:40.573Z,605.2
2022-08-22T01:32:43.038Z,605.1
2022-08-22T01:33:44.972Z,605
2022-08-22T01:34:47.170Z,605
2022-08-22T01:35:49.091Z,605.2
2022-08-22T01:36:51.569Z,605
2022-08-22T01:37:53.942Z,604.7
2022-08-22T01:38:56.481Z,605
2022-08-22T01:39:59.099Z,604.8
2022-08-22T01:41:02.089Z,605
2022-08-22T01:42:04.278Z,605.1
2022-08-22T01:43:06.488Z,605.2
2022-08-22T01:44:08.962Z,605.5
2022-08-22T01:45:11.451Z,605.3
2022-08-22T01:47:19.422Z,605.1
2022-08-22T01:48:23.377Z,605.4
2022-08-22T01:49:25.332Z,605.2
2022-08-22T01:50:27.532Z,605.2
2022-08-22T01:51:30.026Z,605.6
2022-08-22T01:52:32.201Z,605.4
2022-08-22T01:53:34.680Z,605.5
2022-08-22T01:54:39.200Z,605.7
2022-08-22T01:55:41.679Z,605.4
2022-08-22T01:56:43.580Z,605.8
2022-08-22T01:57:45.761Z,605.7
2022-08-22T01:58:48.713Z,605.8
2022-08-22T01:59:50.909Z,605.4
2022-08-22T02:00:53.550Z,605.5
2022-08-22T02:01:55.764Z,606.1
2022-08-22T02:02:58.258Z,606.1
2022-08-22T02:04:00.750Z,606
2022-08-22T02:05:03.702Z,606
2022-08-22T02:06:05.906Z,605.9
2022-08-22T02:07:08.389Z,606.3
2022-08-22T02:08:10.868Z,606.1
2022-08-22T02:09:12.796Z,605.9
2022-08-22T02:10:15.279Z,606.1
2022-08-22T02:11:17.771Z,606.1
2022-08-22T02:13:25.249Z,606.1
2022-08-22T02:14:27.718Z,606.2
2022-08-22T02:15:29.626Z,606.1
2022-08-22T02:16:31.823Z,606.7
2022-08-22T02:17:34.298Z,606.6
2022-08-22T02:18:36.782Z,606.5
2022-08-22T02:19:39.062Z,606.4
2022-08-22T02:20:41.532Z,606.5
2022-08-22T02:21:44.021Z,606.2
2022-08-22T02:22:46.246Z,606.4
2022-08-22T02:23:48.722Z,606.3
2022-08-22T02:24:50.908Z,606.3
2022-08-22T02:25:53.395Z,606.3
2022-08-22T02:26:55.674Z,606
2022-08-22T02:27:58.796Z,606.4
2022-08-22T02:29:01.386Z,606.3
2022-08-22T02:30:05.455Z,606.3
2022-08-22T02:31:07.943Z,606.5
2022-08-22T02:32:10.150Z,606.4
2022-08-22T02:33:12.628Z,606.6
2022-08-22T02:34:15.109Z,606.5
2022-08-22T02:35:17.595Z,606.8
2022-08-22T02:36:20.088Z,606.8
2022-08-22T02:37:22.561Z,606.5
2022-08-22T02:38:25.051Z,606.2
2022-08-22T02:39:27.531Z,606.1
2022-08-22T02:40:30.010Z,605.9
2022-08-22T02:41:33.022Z,605.2
2022-08-22T02:42:35.247Z,605.1
2022-08-22T02:43:37.432Z,604.8
2022-08-22T02:44:39.942Z,605.3
2022-08-22T02:45:42.141Z,605.5
2022-08-22T02:46:44.347Z,604.9
2022-08-22T02:47:46.832Z,604.4
2022-08-22T02:48:49.333Z,605.1
2022-08-22T02:51:00.084Z,604.8
2022-08-22T02:52:02.567Z,604.5
2022-08-22T02:53:04.755Z,604.8
2022-08-22T02:54:06.656Z,604.8
2022-08-22T02:55:09.135Z,605.3
2022-08-22T02:56:11.339Z,605.1
2022-08-22T02:58:18.519Z,605.1
2022-08-22T02:59:20.996Z,605.7
2022-08-22T03:01:28.489Z,605.1
2022-08-22T03:02:30.963Z,605.2
2022-08-22T03:03:33.453Z,604.6
2022-08-22T03:04:35.473Z,604.7
2022-08-22T03:05:37.961Z,605.1
2022-08-22T03:06:39.900Z,604.3
2022-08-22T03:07:42.091Z,604.8
2022-08-22T03:09:49.568Z,604.5
2022-08-22T03:10:52.045Z,604.6
2022-08-22T03:11:54.246Z,604.7
2022-08-22T03:14:01.718Z,604.5
2022-08-22T03:15:03.913Z,604.4
2022-08-22T03:16:06.125Z,604.3
2022-08-22T03:17:08.317Z,604.4
2022-08-22T03:18:10.527Z,604.5
2022-08-22T03:20:17.995Z,604.8
2022-08-22T03:21:20.171Z,604.8
2022-08-22T03:22:22.716Z,604.6
2022-08-22T03:23:25.191Z,605
2022-08-22T03:24:27.670Z,604.8
2022-08-22T03:25:30.145Z,604.8
2022-08-22T03:26:32.617Z,604.8
2022-08-22T03:27:35.419Z,604.9
2022-08-22T03:28:37.682Z,604.7
2022-08-22T03:29:40.151Z,604.9
2022-08-22T03:30:42.335Z,604.9
2022-08-22T03:31:44.816Z,605
2022-08-22T03:32:47.299Z,604.9
2022-08-22T03:33:49.505Z,605
2022-08-22T03:34:51.981Z,605.1
2022-08-22T03:35:54.177Z,604.9
2022-08-22T03:36:56.666Z,604.7
2022-08-22T03:38:00.196Z,605
2022-08-22T03:39:02.218Z,605
2022-08-22T03:40:09.669Z,604.7
2022-08-22T03:41:12.167Z,604.7
2022-08-22T03:42:14.649Z,604.8
2022-08-22T03:43:16.843Z,604.5
2022-08-22T03:44:19.322Z,604.6
2022-08-22T03:45:21.806Z,604.6
2022-08-22T03:46:24.284Z,604.7
2022-08-22T03:48:31.757Z,604.4
2022-08-22T03:49:34.881Z,604.7
2022-08-22T03:50:37.385Z,604.6
2022-08-22T03:51:39.588Z,604.7
2022-08-22T03:52:42.067Z,604.1
2022-08-22T03:53:44.306Z,604.5
2022-08-22T03:54:46.786Z,603.9
2022-08-22T03:55:48.987Z,604.1
2022-08-22T03:57:56.824Z,603.7
2022-08-22T03:58:59.299Z,603.7
2022-08-22T04:00:01.988Z,603.4
2022-08-22T04:01:05.298Z,603.4
2022-08-22T04:03:12.230Z,603.3
2022-08-22T04:04:14.700Z,603.1
2022-08-22T04:06:24.253Z,602.8
2022-08-22T04:08:31.741Z,602.6
2022-08-22T04:10:41.042Z,602.6
2022-08-22T04:11:43.531Z,602.5
2022-08-22T04:12:46.015Z,602.5
2022-08-22T04:13:48.215Z,602.6
2022-08-22T04:14:50.705Z,602.6
2022-08-22T04:15:53.170Z,602.7
2022-08-22T04:16:55.367Z,602.7
2022-08-22T04:18:00.393Z,602.5
2022-08-22T04:19:02.898Z,602.6
2022-08-22T04:20:05.369Z,602.6
2022-08-22T04:21:07.552Z,602.9
2022-08-22T04:22:09.767Z,602.6
2022-08-22T04:23:12.242Z,602.3
2022-08-22T04:24:14.723Z,602.7
2022-08-22T04:25:17.213Z,602.9
2022-08-22T04:26:19.688Z,603.3
2022-08-22T04:27:23.957Z,603.2
2022-08-22T04:28:26.432Z,603.2
2022-08-22T04:29:28.918Z,602.8
2022-08-22T04:30:31.392Z,603.3
2022-08-22T04:31:33.582Z,602.9
2022-08-22T04:32:36.058Z,603
2022-08-22T04:33:38.534Z,602.9
2022-08-22T04:34:40.469Z,603
2022-08-22T04:35:42.946Z,603
2022-08-22T04:36:45.421Z,603
2022-08-22T04:37:47.631Z,603
2022-08-22T04:38:50.103Z,603.3
2022-08-22T04:39:52.695Z,602.9
2022-08-22T04:40:55.189Z,603.3
2022-08-22T04:44:07.390Z,603.4
2022-08-22T04:45:10.048Z,603.3
2022-08-22T04:46:12.001Z,603.4
2022-08-22T04:47:14.475Z,603.3
2022-08-22T04:48:16.959Z,603
2022-08-22T04:49:19.430Z,602.8
2022-08-22T04:50:21.903Z,602.6
2022-08-22T04:51:24.109Z,603
2022-08-22T04:53:31.600Z,603
2022-08-22T04:54:33.804Z,603.3
2022-08-22T04:55:36.283Z,603.1
2022-08-22T04:56:38.479Z,603.4
2022-08-22T04:57:40.678Z,603.5
2022-08-22T04:58:43.174Z,603
2022-08-22T04:59:48.372Z,603.5
2022-08-22T05:00:55.337Z,603.3
2022-08-22T05:01:57.921Z,603.1
2022-08-22T05:03:00.160Z,602.9
2022-08-22T05:04:02.367Z,602.8
2022-08-22T05:05:04.313Z,602
2022-08-22T05:06:06.783Z,602.2
2022-08-22T05:07:08.707Z,601.8
2022-08-22T05:10:20.619Z,601.1
2022-08-22T05:11:22.818Z,601.2
2022-08-22T05:13:30.241Z,600.9
2022-08-22T05:14:32.709Z,600.9
2022-08-22T05:15:34.638Z,601.1
2022-08-22T05:16:36.831Z,600.9
2022-08-22T05:17:38.766Z,601
2022-08-22T05:18:41.241Z,600.8
2022-08-22T05:19:42.887Z,600.7
2022-08-22T05:20:45.090Z,600.8
2022-08-22T05:21:47.573Z,600.9
2022-08-22T05:22:49.768Z,601.1
2022-08-22T05:23:51.987Z,601
2022-08-22T05:24:54.203Z,600.7
2022-08-22T05:25:57.282Z,600.9
2022-08-22T05:26:59.627Z,600.4
2022-08-22T05:28:02.387Z,600.4
2022-08-22T05:29:04.840Z,600.2
2022-08-22T05:30:07.048Z,599.8
2022-08-22T05:31:09.263Z,599.8
2022-08-22T05:32:11.742Z,600.5
2022-08-22T05:33:14.252Z,600.1
2022-08-22T05:34:16.740Z,600.1
2022-08-22T05:35:18.937Z,600.1
2022-08-22T05:36:21.145Z,599.7
2022-08-22T05:37:23.103Z,600
2022-08-22T05:38:25.584Z,599.8
2022-08-22T05:39:29.534Z,599.7
2022-08-22T05:40:31.719Z,599.7
2022-08-22T05:41:33.926Z,599.3
2022-08-22T05:42:36.420Z,599.4
2022-08-22T05:43:38.622Z,599.5
2022-08-22T05:44:41.106Z,599.2
2022-08-22T05:45:43.582Z,599.5
2022-08-22T05:46:45.790Z,599.8
2022-08-22T05:47:48.303Z,599.6
2022-08-22T05:48:50.504Z,599.6
2022-08-22T05:49:53.025Z,599.6
2022-08-22T05:50:55.505Z,599.4
2022-08-22T05:51:57.986Z,599.4
2022-08-22T05:53:00.459Z,599.5
2022-08-22T05:54:02.668Z,599.6
2022-08-22T05:55:04.587Z,599.7
2022-08-22T05:56:06.514Z,599.6
2022-08-22T05:57:09.761Z,599.9
2022-08-22T05:58:12.233Z,600.2
2022-08-22T05:59:14.724Z,599.6
2022-08-22T06:01:22.264Z,599.9
2022-08-22T06:02:24.750Z,599.7
2022-08-22T06:03:27.236Z,599.7
2022-08-22T06:04:28.600Z,599.3
2022-08-22T06:05:30.815Z,599.1
2022-08-22T06:06:33.286Z,599.2
2022-08-22T06:07:35.763Z,599.2
2022-08-22T06:08:37.988Z,599.1
2022-08-22T06:09:40.467Z,599.3
2022-08-22T06:14:01.923Z,598.8
2022-08-22T06:16:12.897Z,598.7
2022-08-22T06:17:16.698Z,599
2022-08-22T06:18:18.634Z,598.7
2022-08-22T06:19:21.616Z,598.3
2022-08-22T06:20:24.106Z,598.6
2022-08-22T06:21:26.620Z,598.6
2022-08-22T06:22:29.566Z,598.8
2022-08-22T06:23:32.055Z,598.9
2022-08-22T06:24:34.546Z,598.6
2022-08-22T06:25:36.464Z,598.7
2022-08-22T06:26:38.689Z,598.7
2022-08-22T06:27:40.899Z,598.8
2022-08-22T06:29:48.386Z,598.6
2022-08-22T06:30:50.581Z,598.6
2022-08-22T06:31:53.070Z,598.9
2022-08-22T06:34:00.589Z,598.8
2022-08-22T06:35:07.079Z,598.5
2022-08-22T06:36:09.011Z,598.4
2022-08-22T06:37:11.521Z,598.3
2022-08-22T06:38:13.443Z,598.3
2022-08-22T06:39:15.644Z,598.4
2022-08-22T06:40:18.610Z,598.2
2022-08-22T06:41:20.843Z,598.4
2022-08-22T06:42:23.047Z,598.1
2022-08-22T06:43:25.315Z,597.9
2022-08-22T06:44:27.580Z,597.8
2022-08-22T06:45:30.052Z,598.1
2022-08-22T06:46:32.821Z,597.8
2022-08-22T06:47:35.012Z,597.9
2022-08-22T06:48:37.218Z,598.1
2022-08-22T06:49:39.400Z,598.3
2022-08-22T06:50:41.346Z,598.2
2022-08-22T06:51:43.823Z,598.1
2022-08-22T06:52:46.018Z,598.1
2022-08-22T06:53:50.383Z,597.8
2022-08-22T06:54:53.377Z,597.9
2022-08-22T06:55:55.850Z,597.9
2022-08-22T06:56:58.334Z,598.1
2022-08-22T06:58:01.578Z,597.8
2022-08-22T06:59:04.988Z,597.9
2022-08-22T07:00:07.471Z,597.6
2022-08-22T07:03:19.659Z,597.9
2022-08-22T07:04:21.581Z,597.6
2022-08-22T07:05:23.786Z,597.6
2022-08-22T07:06:25.719Z,597.5
2022-08-22T07:07:27.920Z,597.4
2022-08-22T07:08:30.412Z,597.4
2022-08-22T07:09:32.616Z,596.9
2022-08-22T07:10:35.108Z,597
2022-08-22T07:11:37.319Z,597.3
2022-08-22T07:12:39.522Z,597.4
2022-08-22T07:13:43.510Z,597.3
2022-08-22T07:14:46.025Z,597
2022-08-22T07:15:48.500Z,597.7
2022-08-22T07:16:50.724Z,597.6
2022-08-22T07:17:53.193Z,597.6
2022-08-22T07:18:55.674Z,597.6
2022-08-22T07:19:57.877Z,597.5
2022-08-22T07:21:02.814Z,597.5
2022-08-22T07:22:05.301Z,597.3
2022-08-22T07:23:07.859Z,597.4
2022-08-22T07:24:10.364Z,597.7
2022-08-22T07:25:12.560Z,597.4
2022-08-22T07:26:15.046Z,597.5
2022-08-22T07:27:17.721Z,597.3
2022-08-22T07:31:44.795Z,596.8
2022-08-22T07:32:47.849Z,597
2022-08-22T07:33:50.069Z,597.2
2022-08-22T07:34:51.967Z,597.6
2022-08-22T07:35:55.370Z,597.6
2022-08-22T07:36:57.870Z,597.7
2022-08-22T07:38:01.774Z,597.3
2022-08-22T07:39:04.257Z,597.8
2022-08-22T07:40:07.186Z,597.8
2022-08-22T07:41:09.749Z,598
2022-08-22T07:42:12.020Z,598.1
2022-08-22T07:43:14.538Z,598
2022-08-22T07:44:17.109Z,598.3
2022-08-22T07:45:19.640Z,598.2
2022-08-22T07:46:22.138Z,598.4
2022-08-22T07:48:29.345Z,598.4
2022-08-22T07:49:31.561Z,598.3
2022-08-22T07:50:33.481Z,598.2
2022-08-22T07:51:35.952Z,598.6
2022-08-22T07:52:38.428Z,598.6
2022-08-22T07:53:40.929Z,598.6
2022-08-22T07:54:43.163Z,598.6
2022-08-22T07:56:50.366Z,598.1
2022-08-22T07:57:52.923Z,598.3
2022-08-22T07:58:55.414Z,598.4
2022-08-22T07:59:57.633Z,598.2
2022-08-22T08:00:59.990Z,597.8
2022-08-22T08:02:02.523Z,597.9
2022-08-22T08:03:05.012Z,597.9
2022-08-22T08:04:07.498Z,598.1
2022-08-22T08:05:09.979Z,598.1
2022-08-22T08:06:11.886Z,598.5
2022-08-22T08:07:14.386Z,598.3
2022-08-22T08:08:17.903Z,598.3
2022-08-22T08:09:20.124Z,598.6
2022-08-22T08:10:22.606Z,598.6
2022-08-22T08:11:25.084Z,598.3
2022-08-22T08:12:27.561Z,598.7
2022-08-22T08:13:30.065Z,598.6
2022-08-22T08:14:32.007Z,598.9
2022-08-22T08:15:34.216Z,598.6
2022-08-22T08:16:36.697Z,598.5
2022-08-22T08:17:38.912Z,598.7
2022-08-22T08:19:46.616Z,598.9
2022-08-22T08:20:49.085Z,598.6
2022-08-22T08:21:51.568Z,598.8
2022-08-22T08:22:54.056Z,599
2022-08-22T08:23:56.257Z,599
2022-08-22T08:24:58.744Z,598.9
2022-08-22T08:26:00.954Z,598.8
2022-08-22T08:27:03.437Z,598.7
2022-08-22T08:28:05.646Z,599
2022-08-22T08:29:08.126Z,599
2022-08-22T08:31:15.067Z,599.4
2022-08-22T08:32:17.541Z,599.6
2022-08-22T08:34:25.032Z,599.8
2022-08-22T08:35:27.570Z,599.6
2022-08-22T08:36:30.055Z,599.4
2022-08-22T08:37:32.545Z,599.5
2022-08-22T08:38:34.452Z,599.8
2022-08-22T08:39:37.290Z,599.9
2022-08-22T08:40:39.990Z,599.8
2022-08-22T08:41:42.468Z,599.9
2022-08-22T08:42:44.954Z,600.2
2022-08-22T08:43:47.435Z,599.9
2022-08-22T08:44:49.640Z,599.8
2022-08-22T08:46:57.495Z,600
2022-08-22T08:48:00.550Z,600
2022-08-22T08:51:13.559Z,600.1
2022-08-22T08:52:17.627Z,599.8
2022-08-22T08:54:27.342Z,599.9
2022-08-22T08:55:34.066Z,599.8
2022-08-22T08:56:38.650Z,599.7
2022-08-22T08:57:45.987Z,599.9
2022-08-22T08:59:54.349Z,599.6
2022-08-22T09:01:03.270Z,599.9
2022-08-22T09:02:07.296Z,599.8
2022-08-22T09:03:09.986Z,600.1
2022-08-22T09:06:23.155Z,600.2
2022-08-22T09:07:25.957Z,600
2022-08-22T09:08:31.403Z,600
2022-08-22T09:09:37.019Z,599.9
2022-08-22T09:11:48.258Z,599.9
2022-08-22T09:13:56.268Z,600
2022-08-22T09:14:58.619Z,600.2
2022-08-22T09:18:11.781Z,599.6
2022-08-22T09:19:16.338Z,599.9
2022-08-22T09:24:46.779Z,599.8
2022-08-22T09:25:48.868Z,600.1
2022-08-22T09:28:01.542Z,599.9
2022-08-22T09:29:05.680Z,599.9
2022-08-22T09:34:34.729Z,600.3
2022-08-22T09:35:36.912Z,600
2022-08-22T09:36:39.325Z,600.4
2022-08-22T09:37:41.827Z,600.4
2022-08-22T09:39:52.202Z,600.4
2022-08-22T09:43:13.010Z,600.1
2022-08-22T09:44:20.656Z,600.1
2022-08-22T09:45:22.920Z,599.9
2022-08-22T09:48:34.560Z,600.2
2022-08-22T09:49:38.521Z,600
2022-08-22T09:51:45.799Z,600.3
2022-08-22T09:52:48.741Z,599.9
2022-08-22T09:57:07.951Z,599.6
2022-08-22T09:59:16.511Z,599.7
2022-08-22T10:01:25.170Z,599.7
2022-08-22T10:02:33.709Z,600.1
2022-08-22T10:05:46.980Z,600.5
2022-08-22T10:06:50.924Z,600.4
2022-08-22T10:07:55.359Z,600.5
2022-08-22T10:08:58.905Z,600.5
2022-08-22T10:10:02.349Z,600.2
2022-08-22T10:13:14.849Z,599.9
2022-08-22T10:15:22.209Z,600.1
2022-08-22T10:16:26.968Z,600.2
2022-08-22T10:17:29.595Z,600.7
2022-08-22T10:18:34.387Z,600.1
2022-08-22T10:19:39.014Z,600.4
2022-08-22T10:21:48.991Z,600.3
2022-08-22T10:22:53.024Z,600.3
2022-08-22T10:23:54.967Z,600.3
2022-08-22T10:26:03.708Z,600.5
2022-08-22T10:27:07.624Z,600.4
2022-08-22T10:29:17.577Z,599.9
2022-08-22T10:30:20.088Z,600.4
2022-08-22T10:31:24.344Z,599.8
2022-08-22T10:32:28.792Z,600.3
2022-08-22T10:33:32.966Z,600.4
2022-08-22T10:34:35.167Z,600.3
2022-08-22T10:35:37.948Z,600.4
2022-08-22T10:36:41.981Z,600.4
2022-08-22T10:38:51.181Z,600.7
2022-08-22T10:39:54.365Z,600.7
2022-08-22T10:40:58.815Z,601.1
2022-08-22T10:42:00.459Z,600.8
2022-08-22T10:43:03.254Z,600.9
2022-08-22T10:44:06.204Z,600.8
2022-08-22T10:45:07.804Z,600.8
2022-08-22T10:47:15.079Z,600.8
2022-08-22T10:48:23.083Z,601.1
2022-08-22T10:52:41.418Z,600.8
2022-08-22T10:53:43.817Z,601.4
2022-08-22T10:54:46.343Z,601.1
2022-08-22T10:55:49.009Z,601.1
2022-08-22T10:57:57.012Z,600.8
2022-08-22T11:00:05.076Z,600.5
2022-08-22T11:02:11.879Z,600.1
2022-08-22T11:05:28.273Z,600.6
2022-08-22T11:06:30.870Z,600.9
2022-08-22T11:08:38.840Z,600.7
2022-08-22T11:09:41.050Z,600.3
2022-08-22T11:10:44.307Z,600.2
2022-08-22T11:11:50.590Z,600.5
2022-08-22T11:12:53.101Z,600.4
2022-08-22T11:13:55.655Z,600.3
2022-08-22T11:14:59.687Z,600
2022-08-22T11:18:19.420Z,600.5
2022-08-22T11:19:22.144Z,600.7
2022-08-22T11:20:25.089Z,600.6
2022-08-22T11:22:32.600Z,600.3
2022-08-22T11:23:35.323Z,600.7
2022-08-22T11:25:42.576Z,600.3
2022-08-22T11:27:51.942Z,601
2022-08-22T11:28:55.488Z,600.7
2022-08-22T11:32:11.379Z,600.7
2022-08-22T11:33:15.234Z,600.3
2022-08-22T11:35:23.391Z,600.2
2022-08-22T11:38:38.154Z,600.5
2022-08-22T11:39:41.311Z,600.6
2022-08-22T11:40:43.799Z,600.6
2022-08-22T11:42:52.431Z,600.7
2022-08-22T11:43:56.938Z,600.5
2022-08-22T11:45:00.170Z,600.8
2022-08-22T11:47:10.953Z,600.1
2022-08-22T11:48:13.550Z,600.4
2022-08-22T11:49:16.032Z,600.5
2022-08-22T11:50:22.996Z,600.5
2022-08-22T11:52:36.669Z,600.8
2022-08-22T11:53:42.001Z,600.6
2022-08-22T11:54:46.783Z,600
2022-08-22T11:55:50.476Z,600.5
2022-08-22T11:56:53.284Z,600.5
2022-08-22T11:57:56.402Z,600.5
2022-08-22T11:58:58.995Z,600.9
2022-08-22T12:00:01.803Z,600.2
2022-08-22T12:01:05.433Z,600.5
2022-08-22T12:03:15.876Z,600.8
2022-08-22T12:04:19.926Z,600.4
2022-08-22T12:06:27.154Z,601.2
2022-08-22T12:07:30.647Z,600.7
2022-08-22T12:08:33.806Z,601.4
2022-08-22T12:10:45.361Z,601
2022-08-22T12:11:50.603Z,600.6
2022-08-22T12:12:53.104Z,600.8
2022-08-22T12:15:00.655Z,601.6
2022-08-22T12:16:04.324Z,601.6
2022-08-22T12:21:30.878Z,602.5
2022-08-22T12:22:33.071Z,602
2022-08-22T12:28:00.171Z,602.7
2022-08-22T12:29:02.657Z,603.2
2022-08-22T12:31:11.290Z,602.9
2022-08-22T12:32:15.183Z,603
2022-08-22T12:34:25.280Z,603.3
2022-08-22T12:36:33.428Z,603.6
2022-08-22T12:38:42.844Z,603.4
2022-08-22T12:40:51.736Z,603.3
2022-08-22T12:41:54.679Z,604.3
2022-08-22T12:42:58.474Z,604.1
2022-08-22T12:44:03.200Z,603.9
2022-08-22T12:45:05.443Z,603.4
2022-08-22T12:47:13.984Z,604.1
2022-08-22T12:48:20.858Z,604.3
2022-08-22T12:49:25.109Z,604.3
2022-08-22T12:50:28.302Z,604.3
2022-08-22T12:51:35.987Z,604.7
2022-08-22T12:52:39.071Z,604.9
2022-08-22T12:53:43.373Z,605.1
2022-08-22T12:54:46.861Z,605.1
2022-08-22T12:55:49.386Z,604.6
2022-08-22T12:56:51.910Z,605.2
2022-08-22T12:57:57.428Z,605.1
2022-08-22T12:58:59.641Z,605.6
2022-08-22T13:00:03.551Z,605.8
2022-08-22T13:01:09.369Z,606
2022-08-22T13:02:11.772Z,605.6
2022-08-22T13:03:15.513Z,605.7
2022-08-22T13:06:28.425Z,605
2022-08-22T13:07:31.416Z,605.2
2022-08-22T13:08:33.625Z,605.5
2022-08-22T13:09:37.659Z,605.2
2022-08-22T13:10:39.305Z,605.4
2022-08-22T13:11:43.202Z,605.3
2022-08-22T13:12:49.925Z,605.5
2022-08-22T13:14:57.038Z,606.1
2022-08-22T13:16:01.199Z,606.1
2022-08-22T13:20:20.623Z,605.1
2022-08-22T13:21:23.369Z,605.4
2022-08-22T13:25:43.466Z,606.1
2022-08-22T13:27:53.914Z,605.8
2022-08-22T13:30:01.443Z,605.6
2022-08-22T13:31:05.659Z,605.7
2022-08-22T13:32:08.574Z,605.9
2022-08-22T13:33:12.491Z,605.8
2022-08-22T13:37:30.685Z,605.1
2022-08-22T13:38:33.293Z,605.6
2022-08-22T13:39:35.973Z,605.2
2022-08-22T13:40:40.036Z,605.4
2022-08-22T13:43:59.260Z,605.3
2022-08-22T13:48:19.482Z,605.4
2022-08-22T13:50:26.940Z,605.8
2022-08-22T13:51:32.170Z,605.6
2022-08-22T13:54:46.764Z,605.9
2022-08-22T13:55:51.112Z,606.1
2022-08-22T13:56:55.247Z,606.4
2022-08-22T13:57:59.316Z,606.4
2022-08-22T13:59:02.021Z,606
2022-08-22T14:01:09.254Z,606.2
2022-08-22T14:03:16.533Z,606.6
2022-08-22T14:05:24.037Z,606.3
2022-08-22T14:07:33.856Z,606.6
2022-08-22T14:08:36.836Z,606.9
2022-08-22T14:09:39.763Z,607.3
2022-08-22T14:11:49.235Z,607.4
2022-08-22T14:12:52.772Z,606.8
2022-08-22T14:13:55.708Z,606.9
2022-08-22T14:15:00.048Z,606.8
2022-08-22T14:16:03.878Z,606.7
2022-08-22T14:17:06.904Z,606.6
2022-08-22T14:19:15.606Z,607.1
2022-08-22T14:21:23.691Z,607.2
2022-08-22T14:25:43.015Z,607
2022-08-22T14:27:52.332Z,607.6
2022-08-22T14:28:56.316Z,607.2
2022-08-22T14:30:00.519Z,607.1
2022-08-22T14:31:04.689Z,606.8
2022-08-22T14:33:11.883Z,607.6
2022-08-22T14:34:16.272Z,607.2
2022-08-22T14:36:25.830Z,607.7
2022-08-22T14:37:30.032Z,607
2022-08-22T14:38:33.363Z,608
2022-08-22T14:39:36.512Z,607.6
2022-08-22T14:40:40.580Z,607.4
2022-08-22T14:43:54.717Z,607.8
2022-08-22T14:44:57.212Z,607.2
2022-08-22T14:49:19.010Z,607.6
2022-08-22T14:50:21.204Z,607.8
2022-08-22T14:51:23.979Z,608
2022-08-22T14:53:31.235Z,607.4
2022-08-22T14:54:34.514Z,607.5
2022-08-22T14:55:37.635Z,607.5
2022-08-22T14:56:42.336Z,607.8
2022-08-22T14:57:45.791Z,607.6
2022-08-22T14:58:50.448Z,607.7
2022-08-22T14:59:52.660Z,607.5
2022-08-22T15:00:55.120Z,607.4
2022-08-22T15:01:58.173Z,606.9
2022-08-22T15:04:07.671Z,607
2022-08-22T15:05:10.302Z,606.7
2022-08-22T15:06:12.780Z,606.9
2022-08-22T15:07:17.518Z,607.2
2022-08-22T15:09:26.066Z,607.1
2022-08-22T15:12:40.061Z,607.2
2022-08-22T15:13:43.056Z,606.9
2022-08-22T15:16:56.041Z,607.5
2022-08-22T15:17:59.362Z,607.5
2022-08-22T15:19:01.850Z,607.3
2022-08-22T15:20:05.172Z,607
2022-08-22T15:23:18.169Z,607.5
2022-08-22T15:24:20.375Z,607
2022-08-22T15:25:22.850Z,607.2
2022-08-22T15:26:24.779Z,607
2022-08-22T15:27:29.432Z,607.1
2022-08-22T15:29:37.445Z,607.1
2022-08-22T15:32:50.410Z,607.1
2022-08-22T15:33:52.614Z,606.9
2022-08-22T15:34:57.884Z,606.9
2022-08-22T15:36:02.662Z,607
2022-08-22T15:39:16.854Z,606.4
2022-08-22T15:40:20.738Z,606.9
2022-08-22T15:41:24.143Z,606.6
2022-08-22T15:42:31.105Z,606.7
2022-08-22T15:44:38.666Z,606.8
2022-08-22T15:45:41.401Z,606.5
2022-08-22T15:46:44.235Z,606.6
2022-08-22T15:47:46.449Z,606.8
2022-08-22T15:49:53.651Z,606.7
2022-08-22T15:50:56.139Z,606.5
2022-08-22T15:51:59.288Z,606.5
2022-08-22T15:55:11.766Z,606.6
2022-08-22T15:56:19.189Z,606.8
2022-08-22T15:57:21.799Z,607
2022-08-22T15:58:25.436Z,606.9
2022-08-22T16:02:49.353Z,606.5
2022-08-22T16:03:51.836Z,606.3
2022-08-22T16:04:54.041Z,606.5
2022-08-22T16:05:57.089Z,606.5
2022-08-22T16:07:00.819Z,606.4
2022-08-22T16:08:03.386Z,606.9
2022-08-22T16:09:05.878Z,606.8
2022-08-22T16:10:08.354Z,606.4
2022-08-22T16:11:10.840Z,606.9
2022-08-22T16:12:13.036Z,606.2
2022-08-22T16:13:14.986Z,606.4
2022-08-22T16:14:17.194Z,606.1
2022-08-22T16:15:20.655Z,606.5
2022-08-22T16:16:22.865Z,606.4
2022-08-22T16:17:25.350Z,606.3
2022-08-22T16:18:27.832Z,605.9
2022-08-22T16:19:30.304Z,605.9
2022-08-22T16:20:32.422Z,606
2022-08-22T16:21:34.904Z,605.9
2022-08-22T16:22:37.427Z,606
2022-08-22T16:23:40.440Z,606
2022-08-22T16:24:44.139Z,605.3
2022-08-22T16:25:50.853Z,605.4
2022-08-22T16:26:53.061Z,605.4
2022-08-22T16:27:55.633Z,605.4
2022-08-22T16:30:02.865Z,605.4
2022-08-22T16:31:05.060Z,605.6
2022-08-22T16:32:07.278Z,605.3
2022-08-22T16:34:14.467Z,604.9
2022-08-22T16:35:16.679Z,605.1
2022-08-22T16:36:19.159Z,605.5
2022-08-22T16:37:21.056Z,605.3
2022-08-22T16:38:23.258Z,605.3
2022-08-22T16:39:25.459Z,605.3
2022-08-22T16:41:32.997Z,605.5
2022-08-22T16:42:35.194Z,605.2
2022-08-22T16:44:43.274Z,605.4
2022-08-22T16:45:45.466Z,605.8
2022-08-22T16:46:47.695Z,604.9
2022-08-22T16:48:55.168Z,604.9
2022-08-22T16:49:57.648Z,604.7
2022-08-22T16:50:59.285Z,604.7
2022-08-22T16:52:01.479Z,604.4
2022-08-22T16:53:03.423Z,603.9
2022-08-22T16:54:05.619Z,603.7
2022-08-22T16:55:07.820Z,604.2
2022-08-22T16:56:10.293Z,603.8
2022-08-22T16:58:17.493Z,603.6
2022-08-22T17:00:25.023Z,603.6
2022-08-22T17:01:27.945Z,603.7
2022-08-22T17:02:30.438Z,603.6
2022-08-22T17:03:32.611Z,603.5
2022-08-22T17:04:35.090Z,603.1
2022-08-22T17:05:37.558Z,603.4
2022-08-22T17:06:40.365Z,603.1
2022-08-22T17:07:42.856Z,603